METAR Data
IDs: Format: Raw Decoded Include TAF

Data at: 1131 UTC 16 Feb 2019

PAIG 161120Z AUTO 04006KT 1SM -SN BR OVC011 M02/M02 A3000 RMK AO2 P0000 FZRANO $
PAIG 161056Z AUTO 06006KT 3/4SM -SN BR OVC013 M02/M02 A2999 RMK AO2 SLP165 P0000 T10221022 FZRANO $
PAIG 161054Z AUTO 05006KT 3/4SM -SN BR OVC013 M02/M02 A2998 RMK AO2 P0000 FZRANO $
PAIG 161049Z AUTO 05005KT 1SM -SN BR OVC015 M02/M02 A2998 RMK AO2 P0000 FZRANO $
PAIG 161035Z AUTO 05005KT 1 1/4SM -SN BR OVC015 M02/M02 A2998 RMK AO2 P0000 FZRANO $
PAIG 161025Z AUTO 05006KT 1SM -SN BR OVC015 M02/M02 A2997 RMK AO2 P0000 FZRANO $
PAIG 160956Z AUTO 06006KT 1 1/2SM -SN BR OVC019 M02/M02 A2997 RMK AO2 SLP159 P0001 T10221022 FZRANO $
PAIG 160856Z AUTO 07003KT 1 1/4SM -SN BR FEW008 OVC012 M02/M02 A2995 RMK AO2 SLP154 P0004 60004 T10171017 410111122 53007 FZRANO $
PAIG 160828Z AUTO 00000KT 1 1/4SM -SN BR OVC014 M02/M02 A2995 RMK AO2 P0002 FZRANO $
PAIG 160810Z AUTO 00000KT 1 1/2SM -SN BR BKN016 OVC024 M02/M02 A2995 RMK AO2 P0000 FZRANO $
PAIG 160756Z AUTO 00000KT 2 1/2SM -SN BR SCT014 OVC026 M02/M02 A2994 RMK AO2 UPB07E09SNB09 SLP151 P0000 T10221022 FZRANO $
PAIG 160751Z AUTO 00000KT 2SM -SN BR SCT014 OVC026 M02/M02 A2994 RMK AO2 VIS 1 3/4V3 UPB07E09SNB09 P0000 FZRANO $
PAIG 160735Z AUTO 00000KT 3SM -SN BR OVC028 M02/M03 A2993 RMK AO2 UPB07E09SNB09 P0000 FZRANO $
PAIG 160656Z AUTO 00000KT 10SM OVC038 M01/M04 A2993 RMK AO2 SLP147 T10111039 FZRANO $
PAIG 160556Z AUTO 03006KT 10SM OVC042 M01/M04 A2992 RMK AO2 SLP145 T10111044 11011 21044 53005 FZRANO $
PAIG 160456Z AUTO 04007KT 10SM OVC042 M02/M05 A2991 RMK AO2 SLP140 T10171050 FZRANO $
PAIG 160356Z AUTO 06006KT 10SM BKN046 M02/M05 A2991 RMK AO2 SLP140 T10221050 FZRANO $
PAIG 160256Z AUTO 04010KT 10SM OVC050 M02/M05 A2991 RMK AO2 SLP140 T10221050 56017 FZRANO $
PAIG 160156Z AUTO 04011KT 10SM CLR M03/M04 A2992 RMK AO2 SLP144 T10281039 FZRANO $
PAIG 160056Z AUTO 04013KT 10SM CLR M03/M05 A2993 RMK AO2 SLP148 T10331050 FZRANO $
PAIG 152256Z AUTO 04012KT 10SM CLR M05/M08 A2998 RMK AO2 SLP162 T10501083 FZRANO $
PAIG 152156Z AUTO 04015KT 10SM CLR M06/M08 A2998 RMK AO2 SLP165 T10611083 FZRANO $
PAIG 152056Z AUTO 03009KT 10SM CLR M06/M08 A3002 RMK AO2 SLP178 T10611083 58001 FZRANO $
PAIG 151956Z AUTO 35006KT 10SM CLR M07/M10 A3002 RMK AO2 SLP176 T10671100 FZRANO $
PAIG 151856Z AUTO 20003KT 10SM CLR M09/M11 A3003 RMK AO2 SLP182 T10891111 FZRANO $
PAIG 151756Z AUTO 31003KT 10SM CLR M11/M12 A3002 RMK AO2 SLP178 T11061122 11094 21122 56015 FZRANO $
PAIG 151656Z AUTO 01004KT 10SM CLR M10/M10 A3004 RMK AO2 SLP182 T11001100 FZRANO $
PAIG 151556Z AUTO 00000KT 10SM CLR M11/M13 A3005 RMK AO2 SLP189 T11111128 FZRANO $
PAIG 151456Z AUTO 00000KT 10SM CLR M11/M12 A3007 RMK AO2 SLP194 T11061117 58011 FZRANO $
PAIG 151356Z AUTO 00000KT 10SM CLR M11/M12 A3008 RMK AO2 SLP198 T11061122 FZRANO $
PAIG 151256Z AUTO 24003KT 10SM CLR M11/M12 A3009 RMK AO2 SLP201 T11111117 FZRANO $
PAIG 151156Z AUTO 00000KT 10SM CLR M11/M12 A3010 RMK AO2 SLP204 T11061122 11072 21111 51004 FZRANO $
PAIG 151056Z AUTO 00000KT 10SM CLR M10/M12 A3010 RMK AO2 SLP204 T11001122 FZRANO $
PAIG 150956Z AUTO 30003KT 10SM BKN041 M08/M10 A3011 RMK AO2 SLP207 T10831100 FZRANO $
PAIG 150856Z AUTO 00000KT 10SM OVC041 M08/M11 A3009 RMK AO2 SLP200 T10831106 410611156 53006 FZRANO $
PAIG 150756Z AUTO 11003KT 10SM CLR M09/M12 A3007 RMK AO2 SLP195 T10891117 FZRANO $
PAIG 150656Z AUTO 07004KT 10SM OVC042 M08/M12 A3007 RMK AO2 SLP193 T10781117 FZRANO $
PAIG 150556Z AUTO 07003KT 10SM OVC044 M07/M11 A3007 RMK AO2 SLP194 60000 T10721111 11061 21078 58001 FZRANO $
PAIG 150456Z AUTO 04005KT 10SM OVC055 M07/M12 A3007 RMK AO2 SLP196 T10671117 FZRANO $
PAIG 150356Z AUTO 02005KT 9SM OVC060 M07/M11 A3007 RMK AO2 SNB29E56 SLP194 P0000 T10721111 FZRANO $
PAIG 150256Z AUTO 01004KT 10SM OVC065 M07/M11 A3007 RMK AO2 SLP195 T10721111 55006 FZRANO $
PAIG 150156Z AUTO 01004KT 10SM BKN080 M07/M13 A3007 RMK AO2 SLP194 T10721128 FZRANO $
PAIG 150056Z AUTO 02004KT 10SM BKN090 M07/M14 A3009 RMK AO2 SLP200 T10671139 FZRANO $
PAIG 142356Z AUTO 08006KT 10SM FEW085 M07/M13 A3009 RMK AO2 SLP201 T10671133 11067 21150 58028 FZRANO $